9°C Temp
4°C Dewpoint
71% Humidity
Temperature
23 KM/H
14 MPH
12 KTS
220°
South West

Wind Speed
Clear
Conditions
Pressure 1022.92 (hPa) - 30.21 (in)
Visibility 6.2 (mi) - 10.0 (km)

Current Conditions
EHBK
Location Maastricht Aachen 6km (3.2mi)
Metar :EHBK 200955Z AUTO 22012KT 190V250 9999 NSC 09/04 Q1023 NOSIG
Wed 20th February 10:55 am

Airport
  Metar Aviation API Data Provided by https://www.checkwx.com/ PHP scripts by weather34.com ©2019